createdAt,value
2022-07-26T00:00:53.074Z,20.90
2022-07-26T00:03:20.580Z,20.83
2022-07-26T00:05:48.160Z,20.88
2022-07-26T00:08:15.765Z,20.81
2022-07-26T00:10:51.590Z,20.83
2022-07-26T00:13:21.243Z,20.79
2022-07-26T00:15:49.628Z,20.74
2022-07-26T00:18:17.927Z,20.75
2022-07-26T00:20:45.890Z,20.74
2022-07-26T00:23:14.664Z,20.72
2022-07-26T00:25:42.421Z,20.66
2022-07-26T00:28:10.034Z,20.65
2022-07-26T00:30:39.722Z,20.61
2022-07-26T00:33:09.767Z,20.57
2022-07-26T00:35:37.504Z,20.52
2022-07-26T00:38:05.019Z,20.52
2022-07-26T00:40:32.747Z,20.49
2022-07-26T00:43:02.735Z,20.48
2022-07-26T00:45:32.847Z,20.48
2022-07-26T00:48:02.085Z,20.36
2022-07-26T00:50:29.854Z,20.41
2022-07-26T00:52:57.383Z,20.37
2022-07-26T00:55:25.029Z,20.34
2022-07-26T00:57:52.659Z,20.29
2022-07-26T01:00:27.828Z,20.35
2022-07-26T01:02:56.842Z,20.30
2022-07-26T01:05:25.096Z,20.28
2022-07-26T01:07:53.702Z,20.30
2022-07-26T01:10:21.298Z,20.26
2022-07-26T01:12:49.097Z,20.22
2022-07-26T01:15:17.418Z,20.22
2022-07-26T01:17:45.740Z,20.20
2022-07-26T01:20:14.719Z,20.14
2022-07-26T01:22:42.317Z,20.16
2022-07-26T01:25:10.223Z,20.16
2022-07-26T01:27:41.324Z,20.19
2022-07-26T01:30:11.515Z,20.16
2022-07-26T01:32:39.570Z,20.16
2022-07-26T01:35:07.911Z,20.09
2022-07-26T01:37:35.515Z,20.13
2022-07-26T01:40:03.780Z,20.08
2022-07-26T01:42:32.423Z,20.13
2022-07-26T01:44:59.905Z,20.09
2022-07-26T01:47:28.292Z,20.09
2022-07-26T01:49:55.947Z,20.09
2022-07-26T01:52:23.467Z,20.09
2022-07-26T01:54:50.977Z,20.13
2022-07-26T01:57:18.757Z,20.16
2022-07-26T01:59:46.208Z,20.10
2022-07-26T02:02:13.849Z,20.12
2022-07-26T02:05:00.058Z,20.14
2022-07-26T02:07:33.692Z,20.27
2022-07-26T02:10:01.192Z,20.19
2022-07-26T02:12:31.067Z,20.21
2022-07-26T02:14:59.467Z,20.22
2022-07-26T02:17:27.048Z,20.19
2022-07-26T02:19:54.567Z,20.23
2022-07-26T02:22:22.064Z,20.26
2022-07-26T02:24:50.358Z,20.29
2022-07-26T02:27:21.212Z,20.28
2022-07-26T02:29:48.914Z,20.32
2022-07-26T02:32:16.589Z,20.35
2022-07-26T02:34:44.099Z,20.39
2022-07-26T02:37:11.638Z,20.45
2022-07-26T02:39:39.121Z,20.52
2022-07-26T02:42:06.662Z,20.57
2022-07-26T02:44:35.011Z,20.62
2022-07-26T02:47:03.350Z,20.69
2022-07-26T02:49:30.925Z,20.80
2022-07-26T02:51:58.567Z,20.86
2022-07-26T02:54:41.320Z,20.93
2022-07-26T02:57:08.872Z,20.98
2022-07-26T02:59:36.728Z,21.04
2022-07-26T03:02:04.361Z,21.13
2022-07-26T03:04:31.993Z,21.19
2022-07-26T03:06:59.488Z,21.22
2022-07-26T03:09:27.008Z,21.27
2022-07-26T03:11:54.539Z,21.38
2022-07-26T03:14:22.068Z,21.45
2022-07-26T03:16:49.659Z,21.53
2022-07-26T03:19:17.143Z,21.64
2022-07-26T03:21:44.710Z,21.71
2022-07-26T03:24:12.232Z,21.80
2022-07-26T03:26:39.928Z,21.83
2022-07-26T03:29:07.581Z,21.93
2022-07-26T03:31:36.281Z,21.95
2022-07-26T03:34:04.140Z,22.10
2022-07-26T03:36:31.925Z,22.19
2022-07-26T03:38:59.475Z,22.29
2022-07-26T03:41:27.047Z,22.40
2022-07-26T03:43:54.531Z,22.59
2022-07-26T03:46:22.037Z,22.73
2022-07-26T03:48:51.949Z,22.83
2022-07-26T03:51:19.464Z,22.97
2022-07-26T03:53:47.016Z,23.07
2022-07-26T03:56:31.706Z,23.11
2022-07-26T03:59:02.384Z,23.27
2022-07-26T04:01:30.838Z,23.39
2022-07-26T04:04:00.739Z,23.43
2022-07-26T04:06:28.987Z,23.55
2022-07-26T04:08:56.659Z,23.67
2022-07-26T04:11:28.694Z,23.75
2022-07-26T04:13:57.761Z,23.82
2022-07-26T04:16:25.855Z,23.93
2022-07-26T04:18:53.774Z,24.07
2022-07-26T04:21:21.328Z,24.13
2022-07-26T04:23:51.307Z,24.22
2022-07-26T04:26:21.451Z,24.33
2022-07-26T04:28:49.032Z,24.41
2022-07-26T04:31:16.836Z,24.44
2022-07-26T04:33:44.576Z,24.58
2022-07-26T04:36:12.232Z,24.63
2022-07-26T04:38:39.800Z,24.70
2022-07-26T04:41:07.463Z,24.74
2022-07-26T04:43:35.158Z,24.78
2022-07-26T04:46:02.997Z,24.88
2022-07-26T04:48:30.601Z,24.93
2022-07-26T04:50:58.118Z,24.95
2022-07-26T04:53:25.594Z,25.05
2022-07-26T04:55:53.290Z,25.05
2022-07-26T04:58:20.803Z,25.14
2022-07-26T05:01:08.946Z,25.27
2022-07-26T05:03:35.827Z,25.38
2022-07-26T05:06:03.338Z,25.46
2022-07-26T05:08:31.014Z,25.52
2022-07-26T05:10:58.572Z,25.64
2022-07-26T05:13:30.443Z,25.74
2022-07-26T05:16:00.226Z,25.80
2022-07-26T05:18:31.454Z,25.97
2022-07-26T05:20:59.756Z,26.04
2022-07-26T05:23:27.341Z,26.16
2022-07-26T05:25:55.512Z,26.24
2022-07-26T05:28:23.028Z,26.30
2022-07-26T05:30:50.971Z,26.32
2022-07-26T05:33:18.763Z,26.43
2022-07-26T05:35:46.452Z,26.53
2022-07-26T05:38:13.992Z,26.65
2022-07-26T05:40:41.497Z,26.79
2022-07-26T05:43:09.186Z,26.81
2022-07-26T05:45:36.749Z,26.89
2022-07-26T05:48:04.520Z,26.99
2022-07-26T05:50:33.148Z,27.08
2022-07-26T05:53:00.769Z,27.14
2022-07-26T05:55:28.806Z,27.27
2022-07-26T05:57:56.320Z,27.38
2022-07-26T06:00:23.979Z,27.38
2022-07-26T06:02:51.530Z,27.53
2022-07-26T06:05:19.134Z,27.60
2022-07-26T06:07:46.674Z,27.68
2022-07-26T06:10:14.175Z,27.77
2022-07-26T06:12:41.920Z,27.95
2022-07-26T06:15:15.680Z,28.06
2022-07-26T06:17:43.619Z,28.17
2022-07-26T06:20:11.426Z,28.30
2022-07-26T06:22:38.914Z,28.35
2022-07-26T06:25:06.956Z,28.41
2022-07-26T06:27:34.489Z,28.51
2022-07-26T06:30:02.122Z,28.64
2022-07-26T06:32:31.723Z,28.72
2022-07-26T06:34:59.241Z,28.76
2022-07-26T06:37:27.031Z,28.91
2022-07-26T06:39:54.527Z,29.06
2022-07-26T06:42:22.088Z,29.17
2022-07-26T06:44:49.567Z,29.33
2022-07-26T06:47:17.135Z,29.53
2022-07-26T06:49:45.124Z,29.69
2022-07-26T06:52:12.694Z,29.84
2022-07-26T06:54:40.215Z,30.01
2022-07-26T06:57:07.985Z,30.13
2022-07-26T06:59:35.670Z,30.34
2022-07-26T07:02:06.065Z,30.57
2022-07-26T07:04:34.113Z,30.83
2022-07-26T07:07:06.457Z,31.08
2022-07-26T07:09:35.306Z,31.40
2022-07-26T07:12:09.881Z,31.65
2022-07-26T07:14:39.211Z,31.99
2022-07-26T07:17:12.997Z,32.25
2022-07-26T07:19:42.633Z,32.58
2022-07-26T07:22:12.924Z,32.87
2022-07-26T07:24:44.345Z,33.07
2022-07-26T07:27:14.233Z,33.36
2022-07-26T07:29:43.938Z,33.69
2022-07-26T07:32:18.046Z,33.91
2022-07-26T07:34:47.914Z,34.06
2022-07-26T07:37:19.913Z,34.17
2022-07-26T07:39:50.747Z,34.46
2022-07-26T07:42:19.752Z,34.75
2022-07-26T07:44:47.660Z,34.88
2022-07-26T07:47:15.318Z,35.02
2022-07-26T07:49:43.516Z,35.24
2022-07-26T07:52:11.034Z,35.46
2022-07-26T07:54:38.644Z,35.81
2022-07-26T07:57:06.214Z,36.23
2022-07-26T07:59:33.894Z,36.54
2022-07-26T08:02:07.412Z,36.65
2022-07-26T08:04:35.658Z,36.94
2022-07-26T08:07:03.250Z,37.29
2022-07-26T08:09:30.851Z,37.46
2022-07-26T08:12:02.198Z,37.69
2022-07-26T08:14:29.992Z,37.92
2022-07-26T08:16:57.660Z,38.03
2022-07-26T08:19:26.162Z,38.23
2022-07-26T08:21:58.539Z,38.50
2022-07-26T08:24:26.580Z,38.64
2022-07-26T08:26:54.209Z,38.66
2022-07-26T08:29:21.859Z,38.92
2022-07-26T08:31:50.709Z,39.19
2022-07-26T08:34:18.633Z,39.51
2022-07-26T08:37:14.183Z,39.71
2022-07-26T08:39:33.742Z,39.95
2022-07-26T08:42:04.212Z,40.11
2022-07-26T08:44:31.802Z,40.24
2022-07-26T08:46:59.383Z,40.20
2022-07-26T08:49:26.973Z,40.40
2022-07-26T08:51:54.779Z,40.69
2022-07-26T08:54:22.404Z,40.95
2022-07-26T08:56:52.683Z,41.09
2022-07-26T08:59:23.418Z,41.31
2022-07-26T09:02:00.442Z,41.79
2022-07-26T09:04:33.833Z,42.07
2022-07-26T09:07:07.090Z,42.33
2022-07-26T09:09:37.595Z,42.49
2022-07-26T09:12:17.836Z,42.70
2022-07-26T09:14:48.788Z,42.34
2022-07-26T09:17:19.147Z,41.90
2022-07-26T09:20:02.362Z,41.90
2022-07-26T09:22:30.507Z,42.23
2022-07-26T09:24:59.247Z,42.67
2022-07-26T09:27:38.369Z,43.20
2022-07-26T09:30:08.777Z,43.24
2022-07-26T09:32:36.989Z,43.52
2022-07-26T09:35:45.844Z,43.62
2022-07-26T09:38:01.638Z,43.93
2022-07-26T09:40:35.298Z,44.37
2022-07-26T09:43:05.137Z,44.67
2022-07-26T09:45:35.843Z,44.63
2022-07-26T09:48:04.110Z,44.04
2022-07-26T09:50:33.187Z,42.58
2022-07-26T09:53:09.551Z,41.00
2022-07-26T09:55:55.439Z,39.44
2022-07-26T09:58:24.356Z,37.76
2022-07-26T10:00:52.111Z,36.71
2022-07-26T10:03:19.751Z,36.12
2022-07-26T10:05:47.314Z,35.71
2022-07-26T10:08:15.054Z,36.53
2022-07-26T10:10:47.864Z,37.20
2022-07-26T10:13:16.296Z,36.99
2022-07-26T10:15:49.486Z,38.19
2022-07-26T10:18:39.156Z,39.89
2022-07-26T10:21:16.932Z,41.13
2022-07-26T10:24:25.109Z,42.44
2022-07-26T10:26:52.598Z,43.08
2022-07-26T10:29:25.871Z,42.50
2022-07-26T10:32:04.015Z,41.74
2022-07-26T10:34:36.402Z,41.69
2022-07-26T10:37:09.257Z,40.86
2022-07-26T10:39:40.818Z,39.47
2022-07-26T10:42:10.563Z,38.17
2022-07-26T10:44:42.757Z,37.02
2022-07-26T10:47:15.775Z,35.99
2022-07-26T10:49:57.607Z,35.25
2022-07-26T10:52:32.434Z,34.63
2022-07-26T10:55:04.545Z,34.20
2022-07-26T10:57:34.306Z,33.87
2022-07-26T11:00:07.972Z,33.90
2022-07-26T11:02:36.203Z,35.54
2022-07-26T11:05:15.702Z,36.86
2022-07-26T11:08:10.746Z,38.38
2022-07-26T11:10:41.424Z,40.19
2022-07-26T11:13:13.356Z,41.66
2022-07-26T11:15:46.738Z,42.79
2022-07-26T11:18:21.273Z,43.66
2022-07-26T11:20:52.465Z,43.57
2022-07-26T11:23:34.277Z,42.31
2022-07-26T11:26:05.831Z,41.62
2022-07-26T11:28:47.230Z,40.70
2022-07-26T11:31:16.498Z,39.17
2022-07-26T11:33:50.898Z,37.90
2022-07-26T11:36:31.534Z,36.93
2022-07-26T11:39:01.076Z,36.19
2022-07-26T11:41:34.234Z,35.60
2022-07-26T11:44:04.233Z,35.07
2022-07-26T11:46:34.958Z,34.64
2022-07-26T11:49:02.896Z,34.23
2022-07-26T11:51:30.395Z,33.91
2022-07-26T11:54:00.770Z,33.58
2022-07-26T11:56:30.754Z,33.29
2022-07-26T11:59:01.342Z,33.03
2022-07-26T12:01:33.592Z,32.76
2022-07-26T12:04:01.294Z,32.54
2022-07-26T12:06:29.173Z,32.33
2022-07-26T12:08:58.574Z,32.06
2022-07-26T12:11:38.622Z,31.91
2022-07-26T12:14:06.296Z,31.67
2022-07-26T12:16:44.723Z,31.49
2022-07-26T12:19:20.347Z,31.34
2022-07-26T12:21:50.711Z,31.13
2022-07-26T12:24:39.776Z,31.30
2022-07-26T12:27:21.409Z,31.19
2022-07-26T12:30:13.397Z,31.09
2022-07-26T12:32:45.248Z,30.98
2022-07-26T12:35:17.236Z,30.84
2022-07-26T12:37:49.714Z,30.78
2022-07-26T12:40:18.596Z,30.75
2022-07-26T12:42:53.777Z,30.87
2022-07-26T12:45:27.812Z,31.52
2022-07-26T12:47:57.426Z,32.39
2022-07-26T12:50:27.048Z,32.90
2022-07-26T12:53:05.805Z,33.27
2022-07-26T12:55:34.115Z,33.52
2022-07-26T12:58:02.012Z,33.79
2022-07-26T13:00:30.077Z,33.91
2022-07-26T13:02:58.463Z,33.89
2022-07-26T13:05:26.294Z,33.84
2022-07-26T13:07:54.392Z,33.72
2022-07-26T13:10:33.243Z,33.61
2022-07-26T13:13:01.872Z,33.44
2022-07-26T13:15:36.229Z,33.17
2022-07-26T13:18:07.870Z,32.74
2022-07-26T13:20:38.732Z,32.29
2022-07-26T13:23:13.132Z,32.01
2022-07-26T13:25:43.562Z,31.87
2022-07-26T13:28:11.091Z,31.77
2022-07-26T13:30:41.181Z,31.48
2022-07-26T13:33:08.964Z,31.21
2022-07-26T13:35:39.382Z,31.03
2022-07-26T13:38:09.209Z,30.81
2022-07-26T13:40:36.743Z,30.58
2022-07-26T13:43:05.270Z,30.43
2022-07-26T13:45:32.825Z,30.40
2022-07-26T13:48:00.385Z,30.26
2022-07-26T13:50:28.531Z,30.11
2022-07-26T13:52:56.741Z,30.02
2022-07-26T13:55:25.618Z,30.00
2022-07-26T13:57:56.609Z,30.00
2022-07-26T14:00:27.195Z,30.10
2022-07-26T14:02:57.158Z,30.08
2022-07-26T14:05:26.955Z,30.16
2022-07-26T14:07:55.137Z,30.21
2022-07-26T14:10:24.169Z,30.22
2022-07-26T14:12:52.531Z,30.23
2022-07-26T14:15:23.104Z,30.20
2022-07-26T14:17:52.588Z,30.18
2022-07-26T14:20:21.710Z,30.10
2022-07-26T14:22:53.694Z,30.09
2022-07-26T14:25:26.822Z,30.06
2022-07-26T14:27:55.411Z,30.03
2022-07-26T14:30:23.220Z,29.94
2022-07-26T14:32:50.923Z,29.87
2022-07-26T14:35:18.558Z,29.82
2022-07-26T14:37:46.551Z,29.76
2022-07-26T14:40:16.260Z,29.74
2022-07-26T14:42:45.047Z,29.69
2022-07-26T14:45:13.858Z,29.68
2022-07-26T14:47:41.846Z,29.58
2022-07-26T14:50:10.771Z,29.56
2022-07-26T14:52:49.675Z,29.59
2022-07-26T14:55:21.674Z,29.63
2022-07-26T14:57:52.268Z,29.73
2022-07-26T15:00:19.994Z,29.74
2022-07-26T15:02:48.897Z,29.70
2022-07-26T15:05:17.243Z,29.63
2022-07-26T15:07:45.496Z,29.64
2022-07-26T15:10:14.455Z,29.55
2022-07-26T15:12:42.779Z,29.46
2022-07-26T15:15:11.280Z,29.39
2022-07-26T15:17:38.805Z,29.22
2022-07-26T15:20:07.138Z,29.10
2022-07-26T15:22:35.200Z,28.95
2022-07-26T15:25:02.760Z,28.95
2022-07-26T15:27:30.800Z,28.78
2022-07-26T15:30:03.513Z,28.69
2022-07-26T15:32:34.039Z,28.63
2022-07-26T15:35:02.167Z,28.50
2022-07-26T15:37:30.999Z,28.41
2022-07-26T15:39:58.811Z,28.35
2022-07-26T15:42:30.483Z,28.31
2022-07-26T15:44:58.579Z,28.15
2022-07-26T15:47:52.425Z,28.12
2022-07-26T15:50:16.517Z,28.02
2022-07-26T15:52:47.022Z,27.97
2022-07-26T15:55:16.983Z,27.88
2022-07-26T15:57:46.188Z,27.80
2022-07-26T16:00:15.527Z,27.76
2022-07-26T16:02:43.482Z,27.67
2022-07-26T16:05:11.991Z,27.62
2022-07-26T16:07:41.762Z,27.64
2022-07-26T16:10:14.261Z,27.60
2022-07-26T16:12:42.561Z,27.58
2022-07-26T16:15:11.868Z,27.49
2022-07-26T16:17:39.918Z,27.48
2022-07-26T16:20:08.693Z,27.42
2022-07-26T16:22:36.258Z,27.43
2022-07-26T16:25:06.038Z,27.40
2022-07-26T16:27:33.869Z,27.33
2022-07-26T16:30:01.339Z,27.32
2022-07-26T16:32:31.190Z,27.29
2022-07-26T16:34:58.891Z,27.23
2022-07-26T16:37:26.364Z,27.19
2022-07-26T16:39:55.685Z,27.11
2022-07-26T16:42:23.713Z,27.09
2022-07-26T16:44:51.724Z,27.11
2022-07-26T16:47:19.211Z,27.08
2022-07-26T16:49:46.804Z,27.03
2022-07-26T16:52:14.607Z,27.00
2022-07-26T16:54:42.590Z,26.99
2022-07-26T16:57:10.241Z,26.96
2022-07-26T16:59:37.837Z,26.93
2022-07-26T17:02:05.755Z,26.89
2022-07-26T17:04:35.815Z,26.86
2022-07-26T17:07:32.353Z,26.83
2022-07-26T17:09:51.262Z,26.85
2022-07-26T17:12:19.062Z,26.78
2022-07-26T17:14:46.723Z,26.76
2022-07-26T17:17:14.282Z,26.70
2022-07-26T17:19:41.926Z,26.63
2022-07-26T17:22:09.433Z,26.52
2022-07-26T17:24:36.974Z,26.51
2022-07-26T17:27:04.796Z,26.48
2022-07-26T17:29:32.324Z,26.44
2022-07-26T17:32:02.196Z,26.38
2022-07-26T17:34:29.833Z,26.42
2022-07-26T17:36:59.176Z,26.39
2022-07-26T17:39:47.500Z,26.37
2022-07-26T17:42:15.014Z,26.38
2022-07-26T17:44:42.535Z,26.34
2022-07-26T17:47:27.489Z,26.38
2022-07-26T17:49:57.184Z,26.31
2022-07-26T17:52:26.585Z,26.29
2022-07-26T17:54:55.784Z,26.24
2022-07-26T17:57:23.531Z,26.21
2022-07-26T17:59:51.109Z,26.18
2022-07-26T18:02:18.659Z,26.11
2022-07-26T18:04:46.370Z,26.08
2022-07-26T18:07:14.512Z,26.05
2022-07-26T18:09:42.050Z,26.00
2022-07-26T18:12:09.714Z,25.97
2022-07-26T18:14:38.598Z,25.89
2022-07-26T18:17:06.173Z,25.83
2022-07-26T18:19:33.670Z,25.76
2022-07-26T18:22:05.618Z,25.74
2022-07-26T18:24:33.839Z,25.70
2022-07-26T18:27:01.392Z,25.67
2022-07-26T18:29:28.957Z,25.63
2022-07-26T18:32:00.332Z,25.60
2022-07-26T18:34:28.595Z,25.55
2022-07-26T18:36:56.082Z,25.56
2022-07-26T18:39:23.675Z,25.54
2022-07-26T18:41:51.179Z,25.48
2022-07-26T18:44:18.849Z,25.48
2022-07-26T18:46:46.467Z,25.50
2022-07-26T18:49:19.799Z,25.45
2022-07-26T18:51:48.949Z,25.39
2022-07-26T18:54:17.953Z,25.43
2022-07-26T18:56:45.539Z,25.44
2022-07-26T18:59:13.578Z,25.40
2022-07-26T19:01:41.436Z,25.42
2022-07-26T19:04:09.137Z,25.37
2022-07-26T19:06:38.374Z,25.39
2022-07-26T19:09:06.481Z,25.35
2022-07-26T19:11:37.542Z,25.26
2022-07-26T19:14:05.537Z,25.23
2022-07-26T19:16:33.262Z,25.28
2022-07-26T19:19:00.828Z,25.23
2022-07-26T19:21:28.964Z,25.24
2022-07-26T19:23:56.582Z,25.22
2022-07-26T19:26:27.654Z,25.14
2022-07-26T19:28:55.241Z,25.15
2022-07-26T19:31:22.758Z,25.18
2022-07-26T19:33:50.294Z,25.17
2022-07-26T19:36:25.218Z,25.15
2022-07-26T19:38:56.720Z,25.10
2022-07-26T19:41:24.729Z,25.14
2022-07-26T19:43:52.198Z,25.15
2022-07-26T19:46:19.795Z,25.08
2022-07-26T19:48:47.458Z,25.08
2022-07-26T19:51:15.012Z,25.09
2022-07-26T19:53:44.754Z,25.05
2022-07-26T19:56:12.292Z,25.01
2022-07-26T19:58:40.021Z,25.01
2022-07-26T20:01:07.709Z,24.92
2022-07-26T20:03:35.430Z,24.90
2022-07-26T20:06:03.060Z,24.93
2022-07-26T20:08:30.560Z,24.90
2022-07-26T20:10:58.110Z,24.79
2022-07-26T20:13:25.636Z,24.82
2022-07-26T20:15:53.283Z,24.86
2022-07-26T20:18:24.925Z,24.88
2022-07-26T20:20:53.585Z,24.87
2022-07-26T20:23:21.103Z,24.82
2022-07-26T20:25:49.411Z,24.85
2022-07-26T20:28:17.322Z,24.82
2022-07-26T20:30:48.396Z,24.86
2022-07-26T20:33:19.322Z,24.84
2022-07-26T20:35:49.322Z,24.82
2022-07-26T20:38:20.705Z,24.84
2022-07-26T20:40:48.283Z,24.78
2022-07-26T20:43:15.786Z,24.77
2022-07-26T20:45:43.639Z,24.76
2022-07-26T20:48:11.209Z,24.73
2022-07-26T20:50:41.238Z,24.71
2022-07-26T20:53:09.014Z,24.65
2022-07-26T20:55:36.577Z,24.61
2022-07-26T20:58:04.498Z,24.55
2022-07-26T21:00:32.146Z,24.48
2022-07-26T21:03:00.336Z,24.43
2022-07-26T21:05:32.361Z,24.39
2022-07-26T21:08:00.350Z,24.38
2022-07-26T21:10:29.331Z,24.28
2022-07-26T21:13:00.286Z,24.27
2022-07-26T21:15:29.408Z,24.27
2022-07-26T21:17:57.998Z,24.29
2022-07-26T21:20:25.626Z,24.23
2022-07-26T21:22:53.185Z,24.24
2022-07-26T21:25:20.706Z,24.25
2022-07-26T21:27:48.322Z,24.26
2022-07-26T21:30:15.895Z,24.26
2022-07-26T21:32:46.320Z,24.20
2022-07-26T21:35:13.846Z,24.24
2022-07-26T21:37:44.858Z,24.20
2022-07-26T21:40:14.004Z,24.21
2022-07-26T21:42:41.474Z,24.19
2022-07-26T21:45:09.399Z,24.18
2022-07-26T21:47:36.946Z,24.18
2022-07-26T21:50:05.112Z,24.16
2022-07-26T21:52:32.583Z,24.11
2022-07-26T21:55:00.193Z,24.11
2022-07-26T21:57:27.682Z,24.07
2022-07-26T21:59:55.265Z,24.04
2022-07-26T22:02:23.244Z,24.05
2022-07-26T22:04:50.912Z,23.99
2022-07-26T22:07:18.452Z,24.00
2022-07-26T22:09:46.031Z,23.93
2022-07-26T22:12:13.507Z,23.93
2022-07-26T22:14:41.358Z,23.95
2022-07-26T22:17:08.873Z,23.95
2022-07-26T22:19:38.650Z,23.92
2022-07-26T22:22:06.219Z,23.94
2022-07-26T22:24:33.802Z,23.98
2022-07-26T22:27:01.363Z,23.92
2022-07-26T22:29:38.935Z,23.92
2022-07-26T22:32:07.834Z,23.90
2022-07-26T22:34:35.415Z,23.85
2022-07-26T22:37:03.059Z,23.83
2022-07-26T22:39:30.527Z,23.75
2022-07-26T22:42:14.874Z,23.77
2022-07-26T22:44:43.780Z,23.80
2022-07-26T22:47:11.315Z,23.77
2022-07-26T22:49:38.854Z,23.78
2022-07-26T22:52:06.422Z,23.75
2022-07-26T22:54:33.987Z,23.69
2022-07-26T22:57:01.439Z,23.64
2022-07-26T22:59:29.085Z,23.60
2022-07-26T23:01:59.322Z,23.58
2022-07-26T23:04:26.956Z,23.56
2022-07-26T23:06:55.956Z,23.48
2022-07-26T23:09:26.341Z,23.43
2022-07-26T23:11:53.978Z,23.44
2022-07-26T23:14:21.563Z,23.37
2022-07-26T23:16:49.113Z,23.37
2022-07-26T23:19:16.990Z,23.38
2022-07-26T23:21:44.591Z,23.38
2022-07-26T23:24:12.228Z,23.38
2022-07-26T23:26:39.721Z,23.30
2022-07-26T23:29:08.798Z,23.36
2022-07-26T23:31:38.282Z,23.34
2022-07-26T23:34:05.967Z,23.29
2022-07-26T23:36:33.604Z,23.24
2022-07-26T23:39:01.176Z,23.27
2022-07-26T23:41:29.033Z,23.24
2022-07-26T23:43:56.866Z,23.24
2022-07-26T23:46:25.467Z,23.16
2022-07-26T23:48:53.728Z,23.10
2022-07-26T23:51:23.121Z,23.09
2022-07-26T23:53:53.850Z,23.09
2022-07-26T23:56:21.479Z,23.07
2022-07-26T23:58:49.398Z,23.02
